Latest Weather Observations for Leonora Airport

IDW60801

Issued at 9:02 pm WST Tuesday 21 April 2015 (issued every 30 minutes, with the page automatically refreshed every 10 minutes)

About weather observations | Map of weather stations | Latest weather observations for WA | Other Formats
Station Details ID: 012241 Name: LEONORA AERO Lat: -28.88 Lon: 121.32 Height: 370.0 m
Data from the previous 72 hours. | See also: Recent months for locations in Western Australia
Date/Time
WST
Temp
°C
App
Temp
°C
Dew
Point
Rel
Hum
%
Delta-T
°C
Wind Press
QNH
hPa
Press
MSL
hPa
Rain
since 9 am
mm
Dir
 
Spd
km/h
Gust
km/h
Spd
kts
Gust
kts
21/09:00pm 16.8 13.3 3.5 41 6.2 ENE 11 15 6 8 1022.9 1021.3 0.0
21/08:30pm 16.8 13.8 4.2 43 6.0 ENE 9 13 5 7 1023.0 1021.5 0.0
21/08:00pm 17.0 13.8 5.0 45 5.8 NE 11 15 6 8 1023.0 1021.5 0.0
21/07:30pm 17.4 12.9 4.0 41 6.4 NE 17 24 9 13 1023.1 1021.6 0.0
21/07:00pm 17.9 13.3 3.8 39 6.7 NE 17 24 9 13 1023.0 1021.5 0.0
21/06:30pm 18.7 13.5 2.5 34 7.6 NE 19 28 10 15 1022.7 1021.1 0.0
21/06:00pm 19.4 13.8 1.4 30 8.3 NE 20 26 11 14 1022.3 1020.7 0.0
21/05:30pm 20.5 15.7 0.4 26 9.1 E 15 26 8 14 1022.1 1020.5 0.0
21/05:00pm 20.5 15.9 -0.7 24 9.4 E 13 19 7 10 1021.9 1020.3 0.0
21/04:30pm 20.6 16.1 -0.1 25 9.4 E 13 19 7 10 1021.8 1020.2 0.0
21/04:00pm 20.7 15.4 -0.6 24 9.5 E 17 24 9 13 1021.6 1020.0 0.0
21/03:30pm 20.9 15.7 0.2 25 9.4 ESE 17 20 9 11 1021.5 1019.9 0.0
21/03:00pm 20.6 17.0 0.4 26 9.2 E 9 17 5 9 1021.5 1019.9 0.0
21/02:30pm 20.3 16.0 0.7 27 9.0 ESE 13 19 7 10 1021.4 1019.8 0.0
21/02:00pm 20.6 17.1 1.0 27 9.0 SSE 9 13 5 7 1021.0 1019.5 0.0
21/01:30pm 20.4 16.8 0.3 26 9.1 ESE 9 15 5 8 1021.4 1019.8 0.0
21/01:00pm 20.0 15.3 1.0 28 8.7 NE 15 20 8 11 1022.1 1020.5 0.0
21/12:30pm 20.0 15.3 1.0 28 8.7 ENE 15 22 8 12 1022.3 1020.7 0.0
21/12:00pm 19.9 15.6 0.9 28 8.7 NE 13 17 7 9 1022.7 1021.1 0.0
21/11:30am 19.4 15.9 1.4 30 8.3 NNE 9 15 5 8 1023.1 1021.6 0.0
21/11:00am 19.1 15.0 2.0 32 7.9 NNE 13 19 7 10 1023.8 1022.3 0.0
21/10:30am 18.0 13.5 1.9 34 7.4 NE 15 20 8 11 1024.2 1022.6 0.0
21/10:00am 17.3 12.4 1.7 35 7.1 ENE 17 24 9 13 1024.6 1023.0 0.0
21/09:30am 16.0 12.8 3.1 42 6.0 ENE 9 15 5 8 1024.9 1023.3 0.0
21/09:00am 15.3 12.1 3.1 44 5.6 E 9 13 5 7 1024.9 1023.3 0.0
21/08:30am 14.6 11.5 3.4 47 5.2 E 9 13 5 7 1025.1 1023.5 0.0
21/08:00am 13.2 10.1 3.6 52 4.4 ESE 9 13 5 7 1025.1 1023.5 0.0
21/07:30am 12.6 9.5 3.5 54 4.1 ESE 9 13 5 7 1025.1 1023.5 0.0
21/07:00am 11.4 8.2 3.2 57 3.7 ESE 9 13 5 7 1024.8 1023.2 0.0
21/06:30am 11.1 7.6 3.4 59 3.5 ESE 11 13 6 7 1024.7 1023.1 0.0
21/06:00am 11.5 8.0 3.5 58 3.6 E 11 15 6 8 1024.4 1022.8 0.0
21/05:30am 11.8 7.9 3.3 56 3.8 ESE 13 17 7 9 1024.4 1022.8 0.0
21/05:00am 12.2 8.6 3.2 54 4.0 ESE 11 13 6 7 1024.6 1023.0 0.0
21/04:30am 12.9 9.3 3.0 51 4.5 ESE 11 15 6 8 1024.6 1023.0 0.0
21/04:00am 13.4 9.4 2.9 49 4.7 ESE 13 17 7 9 1024.6 1023.0 0.0
21/03:30am 13.6 9.6 2.8 48 4.9 SE 13 17 7 9 1024.3 1022.7 0.0
21/03:00am 13.9 9.8 2.5 46 5.1 SE 13 15 7 8 1024.2 1022.6 0.0
21/02:30am 14.6 10.5 2.2 43 5.6 ESE 13 17 7 9 1024.5 1022.9 0.0
21/02:00am 14.6 10.1 2.2 43 5.6 ESE 15 17 8 9 1024.6 1023.0 0.0
21/01:30am 14.9 10.8 2.1 42 5.8 ESE 13 17 7 9 1024.8 1023.2 0.0
21/01:00am 15.5 11.3 1.6 39 6.2 ESE 13 15 7 8 1024.9 1023.3 0.0
21/12:30am 16.3 12.4 1.2 36 6.7 ESE 11 15 6 8 1025.2 1023.6 0.0
21/12:00am 17.3 13.4 1.3 34 7.2 E 11 15 6 8 1025.3 1023.7 0.0
 
Date/Time
WST
Temp
°C
App
Temp
°C
Dew
Point
Rel
Hum
%
Delta-T
°C
Wind Press
QNH
hPa
Press
MSL
hPa
Rain
since 9 am
mm
Dir
 
Spd
km/h
Gust
km/h
Spd
kts
Gust
kts
20/11:30pm 17.8 12.8 1.3 33 7.5 E 17 22 9 12 1025.2 1023.6 0.0
20/11:00pm 18.1 13.1 1.2 32 7.6 E 17 26 9 14 1025.2 1023.6 0.0
20/10:30pm 18.5 12.9 1.1 31 7.9 E 20 28 11 15 1025.6 1024.1 0.0
20/10:00pm 18.8 13.2 1.3 31 8.0 E 20 26 11 14 1025.6 1024.1 0.0
20/09:30pm 19.1 13.6 1.6 31 8.1 E 20 28 11 15 1025.6 1024.1 0.0
20/09:00pm 19.2 13.6 1.2 30 8.2 E 20 28 11 15 1025.7 1024.2 0.0
20/08:30pm 19.5 14.4 0.5 28 8.6 E 17 24 9 13 1025.5 1024.0 0.0
20/08:00pm 20.0 14.3 -0.6 25 9.1 E 19 24 10 13 1025.2 1023.6 0.0
20/07:30pm 20.3 15.0 -0.3 25 9.2 E 17 22 9 12 1025.1 1023.5 0.0
20/07:00pm 20.9 15.4 0.7 26 9.2 ESE 19 28 10 15 1024.8 1023.2 0.0
20/06:30pm 21.1 16.0 0.9 26 9.3 ESE 17 24 9 13 1024.5 1022.9 0.0
20/06:00pm 21.0 16.5 2.3 29 8.8 ESE 15 19 8 10 1024.5 1022.9 0.0
20/05:30pm 21.6 17.0 1.8 27 9.4 ESE 15 22 8 12 1024.2 1022.6 0.0
20/05:00pm 22.1 16.7 2.2 27 9.5 ESE 20 30 11 16 1024.1 1022.5 0.0
20/04:30pm 22.4 17.0 2.5 27 9.6 ESE 20 28 11 15 1024.1 1022.5 0.0
20/04:00pm 22.6 17.5 3.2 28 9.4 ESE 19 28 10 15 1024.2 1022.6 0.0
20/03:30pm 23.3 18.1 3.8 28 9.7 ESE 20 32 11 17 1024.0 1022.4 0.0
20/03:00pm 23.1 18.2 4.1 29 9.4 ESE 19 30 10 16 1024.1 1022.5 0.0
20/02:30pm 23.4 18.5 4.9 30 9.4 ESE 20 30 11 16 1024.2 1022.6 0.0
20/02:00pm 22.9 17.1 4.4 30 9.2 E 24 33 13 18 1024.4 1022.8 0.0
20/01:30pm 22.4 16.7 4.9 32 8.8 E 24 33 13 18 1024.6 1023.0 0.0
20/01:00pm 22.2 17.5 5.2 33 8.6 ENE 19 35 10 19 1025.0 1023.4 0.0
20/12:30pm 22.0 16.9 5.8 35 8.3 E 22 35 12 19 1025.5 1024.0 0.0
20/12:00pm 21.2 16.5 5.9 37 7.8 ENE 20 30 11 16 1026.1 1024.6 0.0
20/11:30am 19.7 14.2 5.7 40 7.0 ENE 24 30 13 16 1027.0 1025.4 0.0
20/11:00am 18.9 13.4 6.1 43 6.4 ENE 24 35 13 19 1027.7 1026.1 0.0
20/10:30am 17.8 11.8 5.4 44 6.1 ENE 26 35 14 19 1028.2 1026.7 0.0
20/10:00am 17.2 11.3 5.8 47 5.6 ENE 26 35 14 19 1028.3 1026.8 0.0
20/09:30am 16.9 11.6 6.7 51 5.1 E 24 32 13 17 1028.3 1026.8 0.0
20/09:00am 15.1 9.7 6.4 56 4.3 E 24 30 13 16 1028.5 1027.0 0.0
20/08:30am 14.2 9.3 6.8 61 3.7 E 22 33 12 18 1028.6 1027.1 0.0
20/08:00am 13.5 8.6 6.8 64 3.3 E 22 32 12 17 1028.5 1027.0 0.0
20/07:30am 12.9 8.4 7.1 68 2.9 E 20 30 11 16 1028.4 1026.9 0.0
20/07:00am 12.5 8.6 7.2 70 2.6 ESE 17 24 9 13 1028.1 1026.6 0.0
20/06:30am 12.0 7.8 7.3 73 2.3 ESE 19 24 10 13 1027.9 1026.4 0.0
20/06:00am 12.0 8.2 7.5 74 2.2 ESE 17 24 9 13 1027.7 1026.1 0.0
20/05:30am 12.1 8.4 7.8 75 2.1 ESE 17 24 9 13 1027.6 1026.0 0.0
20/05:00am 12.3 9.0 8.0 75 2.1 ESE 15 20 8 11 1027.5 1025.9 0.0
20/04:30am 12.5 8.9 8.2 75 2.2 ESE 17 20 9 11 1027.5 1025.9 0.0
20/04:00am 12.7 9.5 8.4 75 2.2 ESE 15 17 8 9 1027.4 1025.8 0.0
20/03:30am 13.1 9.9 8.6 74 2.3 ESE 15 19 8 10 1027.4 1025.8 0.0
20/03:00am 13.1 10.7 8.6 74 2.3 ESE 11 15 6 8 1027.5 1025.9 0.0
20/02:30am 13.5 10.7 8.6 72 2.5 ESE 13 17 7 9 1027.7 1026.1 0.0
20/02:00am 13.7 11.6 8.3 70 2.7 ESE 9 13 5 7 1027.9 1026.4 0.0
20/01:30am 14.2 12.1 8.2 67 3.1 ESE 9 15 5 8 1028.0 1026.5 0.0
20/01:00am 15.2 12.0 8.4 64 3.5 E 15 20 8 11 1028.1 1026.6 0.0
20/12:30am 15.6 12.4 8.6 63 3.6 E 15 24 8 13 1028.1 1026.6 0.0
20/12:00am 15.9 11.9 8.4 61 3.9 E 19 26 10 14 1028.1 1026.6 0.0
 
Date/Time
WST
Temp
°C
App
Temp
°C
Dew
Point
Rel
Hum
%
Delta-T
°C
Wind Press
QNH
hPa
Press
MSL
hPa
Rain
since 9 am
mm
Dir
 
Spd
km/h
Gust
km/h
Spd
kts
Gust
kts
19/11:30pm 16.2 12.0 8.4 60 4.0 E 20 28 11 15 1028.3 1026.8 0.0
19/11:00pm 16.4 12.3 8.6 60 4.0 E 20 26 11 14 1028.7 1027.2 0.0
19/10:30pm 16.8 12.3 8.5 58 4.3 E 22 33 12 18 1028.9 1027.4 0.0
19/10:00pm 17.0 12.9 8.7 58 4.3 E 20 28 11 15 1028.9 1027.4 0.0
19/09:30pm 17.4 11.8 8.8 57 4.5 E 28 37 15 20 1028.9 1027.4 0.0
19/09:00pm 18.0 12.5 9.1 56 4.7 E 28 39 15 21 1028.8 1027.3 0.0
19/08:30pm 18.6 13.8 8.8 53 5.2 E 24 37 13 20 1028.5 1027.0 0.0
19/08:00pm 19.1 13.9 8.7 51 5.5 E 26 39 14 21 1028.2 1026.7 0.0
19/07:30pm 19.6 15.7 8.6 49 5.8 ESE 19 24 10 13 1027.9 1026.4 0.0
19/07:00pm 20.4 16.2 8.4 46 6.3 E 20 28 11 15 1027.6 1026.0 0.0
19/06:30pm 20.9 16.5 7.5 42 7.0 E 20 28 11 15 1027.2 1025.6 0.0
19/06:00pm 21.4 17.0 6.5 38 7.6 E 19 24 10 13 1027.0 1025.4 0.0
19/05:30pm 22.0 16.6 6.3 36 8.1 E 24 33 13 18 1026.5 1025.0 0.0
19/05:00pm 22.4 16.6 6.2 35 8.3 E 26 35 14 19 1026.1 1024.6 0.0
19/04:30pm 23.0 17.5 5.9 33 8.8 E 24 41 13 22 1026.1 1024.6 0.0
19/04:00pm 23.3 18.2 6.1 33 8.9 E 22 35 12 19 1026.0 1024.5 0.0
19/03:30pm 23.6 17.8 6.4 33 9.0 ENE 26 35 14 19 1026.1 1024.6 0.0
19/03:00pm 23.2 17.9 6.9 35 8.5 E 24 33 13 18 1026.2 1024.7 0.0
19/02:30pm 23.6 18.3 6.8 34 8.8 E 24 35 13 19 1026.3 1024.8 0.0
19/02:00pm 23.7 19.1 8.2 37 8.3 E 22 35 12 19 1026.4 1024.9 0.0
19/01:30pm 22.9 18.2 7.8 38 8.1 E 22 33 12 18 1026.7 1025.2 0.0
19/01:00pm 22.6 17.9 7.6 38 7.9 E 22 35 12 19 1026.9 1025.3 0.0
19/12:30pm 22.6 17.3 6.8 36 8.3 E 24 35 13 19 1027.3 1025.7 0.0
19/12:00pm 21.8 16.7 7.6 40 7.5 E 24 33 13 18 1027.8 1026.3 0.0
19/11:30am 21.8 17.3 8.7 43 7.1 E 22 35 12 19 1028.1 1026.6 0.0
19/11:00am 21.2 16.4 8.8 45 6.6 ENE 24 35 13 19 1028.5 1027.0 0.0
19/10:30am 20.4 14.9 9.3 49 6.0 E 28 37 15 20 1028.6 1027.1 0.0
19/10:00am 19.6 13.3 8.9 50 5.7 E 32 43 17 23 1028.8 1027.3 0.0
19/09:30am 19.0 13.6 9.5 54 5.1 E 28 39 15 21 1028.7 1027.2 0.0
19/09:00am 18.0 11.8 9.4 57 4.6 E 32 48 17 26 1028.6 1027.1 0.0
19/08:58am 18.2 12.8 9.5 57 4.7 E 28 46 15 25 1028.6 1027.1 0.0
19/08:30am 17.2 11.6 10.1 63 3.8 E 30 41 16 22 1028.6 1027.1 0.0
19/08:00am 16.3 11.1 10.4 68 3.2 E 28 41 15 22 1028.5 1027.0 0.0
19/07:30am 15.1 11.5 10.5 74 2.5 E 20 35 11 19 1028.1 1026.6 0.0
19/07:00am 14.2 10.6 10.6 79 1.9 E 20 26 11 14 1027.8 1026.3 0.0
19/06:30am 12.6 9.8 10.1 85 1.3 ESE 15 20 8 11 1027.6 1026.0 0.0
19/06:00am 12.0 9.4 9.4 84 1.3 ESE 13 20 7 11 1027.3 1025.7 0.0
19/05:30am 11.8 8.9 8.3 79 1.8 ESE 13 17 7 9 1027.2 1025.6 0.0
19/05:00am 12.1 8.7 7.6 74 2.2 ESE 15 20 8 11 1026.9 1025.3 0.0
19/04:30am 12.5 9.0 7.4 71 2.5 ESE 15 20 8 11 1026.4 1024.9 0.0
19/04:00am 12.9 9.0 7.1 68 2.8 ESE 17 24 9 13 1026.3 1024.8 0.0
19/03:30am 13.0 9.1 7.0 67 3.0 ESE 17 22 9 12 1026.1 1024.6 0.0
19/03:00am 13.5 9.9 6.6 63 3.4 ESE 15 19 8 10 1026.0 1024.5 0.0
19/02:30am 14.2 10.6 6.6 60 3.7 ESE 15 19 8 10 1025.8 1024.3 0.0
19/02:00am 14.1 10.8 6.2 59 3.8 ESE 13 17 7 9 1025.8 1024.3 0.0
19/01:30am 15.1 11.3 5.9 54 4.5 ESE 15 19 8 10 1026.1 1024.6 0.0
19/01:00am 16.4 12.3 6.0 50 5.1 E 17 20 9 11 1026.4 1024.9 0.0
19/12:30am 16.1 12.6 5.4 49 5.2 E 13 17 7 9 1026.5 1025.0 0.0
19/12:00am 16.2 12.6 5.2 48 5.3 E 13 19 7 10 1025.9 1024.4 0.0
 
Date/Time
WST
Temp
°C
App
Temp
°C
Dew
Point
Rel
Hum
%
Delta-T
°C
Wind Press
QNH
hPa
Press
MSL
hPa
Rain
since 9 am
mm
Dir
 
Spd
km/h
Gust
km/h
Spd
kts
Gust
kts
18/11:30pm 16.3 12.3 5.0 47 5.5 ESE 15 19 8 10 1025.6 1024.1 0.0
18/11:00pm 16.9 12.8 4.6 44 5.9 E 15 19 8 10 1025.5 1024.0 0.0
18/10:30pm 17.1 13.5 4.8 44 6.0 E 13 15 7 8 1025.8 1024.3 0.0
18/10:00pm 16.9 13.3 4.9 45 5.8 ESE 13 15 7 8 1025.8 1024.3 0.0
18/09:30pm 17.2 13.8 5.8 47 5.6 ESE 13 17 7 9 1025.4 1023.9 0.0

Other Formats:

Comma delimited format used in spreadsheet applications
http://www.bom.gov.au/fwo/IDW60801/IDW60801.94450.axf

JavaScript Object Notation format (JSON) in row-major order
http://www.bom.gov.au/fwo/IDW60801/IDW60801.94450.json